createdAt,value
2018-03-29T00:00:32.065Z,1000.41
2018-03-29T00:01:32.137Z,1000.46
2018-03-29T00:02:32.193Z,1000.41
2018-03-29T00:03:32.309Z,1000.45
2018-03-29T00:04:32.317Z,1000.46
2018-03-29T00:05:32.377Z,1000.45
2018-03-29T00:06:32.436Z,1000.41
2018-03-29T00:07:32.501Z,1000.41
2018-03-29T00:08:32.573Z,1000.44
2018-03-29T00:09:32.769Z,1000.45
2018-03-29T00:10:32.661Z,1000.50
2018-03-29T00:11:32.753Z,1000.44
2018-03-29T00:12:32.781Z,1000.50
2018-03-29T00:13:32.885Z,1000.46
2018-03-29T00:14:32.957Z,1000.52
2018-03-29T00:15:32.977Z,1000.50
2018-03-29T00:16:33.045Z,1000.54
2018-03-29T00:17:33.098Z,1000.58
2018-03-29T00:18:33.689Z,1000.60
2018-03-29T00:19:33.213Z,1000.63
2018-03-29T00:20:33.321Z,1000.60
2018-03-29T00:21:33.338Z,1000.57
2018-03-29T00:22:33.594Z,1000.66
2018-03-29T00:23:33.473Z,1000.55
2018-03-29T00:24:33.665Z,1000.61
2018-03-29T00:25:33.570Z,1000.60
2018-03-29T00:26:33.626Z,1000.61
2018-03-29T00:27:33.707Z,1000.61
2018-03-29T00:28:33.751Z,1000.57
2018-03-29T00:29:33.946Z,1000.57
2018-03-29T00:30:33.886Z,1000.58
2018-03-29T00:31:33.950Z,1000.61
2018-03-29T00:32:33.986Z,1000.62
2018-03-29T00:33:34.054Z,1000.62
2018-03-29T00:34:34.266Z,1000.64
2018-03-29T00:35:34.178Z,1000.63
2018-03-29T00:36:34.233Z,1000.61
2018-03-29T00:37:34.302Z,1000.62
2018-03-29T00:38:34.358Z,1000.68
2018-03-29T00:39:34.438Z,1000.65
2018-03-29T00:40:34.492Z,1000.67
2018-03-29T00:41:34.526Z,1000.70
2018-03-29T00:42:34.582Z,1000.68
2018-03-29T00:43:34.646Z,1000.64
2018-03-29T00:44:34.723Z,1000.72
2018-03-29T00:45:34.781Z,1000.67
2018-03-29T00:46:34.831Z,1000.71
2018-03-29T00:47:34.882Z,1000.74
2018-03-29T00:48:34.947Z,1000.69
2018-03-29T00:49:35.027Z,1000.76
2018-03-29T00:50:35.102Z,1000.78
2018-03-29T00:51:35.307Z,1000.79
2018-03-29T00:52:35.199Z,1000.83
2018-03-29T00:53:35.247Z,1000.82
2018-03-29T00:54:35.307Z,1000.80
2018-03-29T00:55:35.471Z,1000.82
2018-03-29T00:56:35.439Z,1000.80
2018-03-29T00:57:35.485Z,1000.82
2018-03-29T00:58:35.551Z,1000.80
2018-03-29T00:59:35.603Z,1000.84
2018-03-29T01:00:35.680Z,1000.86
2018-03-29T01:01:35.748Z,1000.85
2018-03-29T01:02:35.951Z,1000.90
2018-03-29T01:03:35.845Z,1000.86
2018-03-29T01:04:35.901Z,1000.89
2018-03-29T01:05:35.991Z,1000.90
2018-03-29T01:06:36.154Z,1000.91
2018-03-29T01:07:36.084Z,1000.94
2018-03-29T01:08:36.151Z,1000.96
2018-03-29T01:09:36.280Z,1000.95
2018-03-29T01:10:36.300Z,1000.99
2018-03-29T01:11:36.331Z,1000.97
2018-03-29T01:12:36.391Z,1000.98
2018-03-29T01:13:36.449Z,1000.98
2018-03-29T01:14:36.511Z,1000.97
2018-03-29T01:15:36.572Z,1000.98
2018-03-29T01:16:36.773Z,1000.97
2018-03-29T01:17:36.698Z,1000.99
2018-03-29T01:18:36.956Z,1000.98
2018-03-29T01:19:36.803Z,1000.95
2018-03-29T01:20:36.876Z,1001.00
2018-03-29T01:21:36.931Z,1000.97
2018-03-29T01:22:36.988Z,1000.98
2018-03-29T01:23:37.064Z,1001.02
2018-03-29T01:24:37.285Z,1000.98
2018-03-29T01:25:37.188Z,1001.03
2018-03-29T01:26:37.234Z,1001.02
2018-03-29T01:27:37.288Z,1001.02
2018-03-29T01:28:37.404Z,1001.04
2018-03-29T01:29:37.438Z,1001.02
2018-03-29T01:30:37.469Z,1001.04
2018-03-29T01:31:37.596Z,1001.00
2018-03-29T01:32:37.596Z,1001.04
2018-03-29T01:33:37.677Z,1001.02
2018-03-29T01:34:37.713Z,1001.05
2018-03-29T01:35:37.795Z,1001.07
2018-03-29T01:36:37.833Z,1001.07
2018-03-29T01:37:37.885Z,1001.11
2018-03-29T01:38:38.121Z,1001.11
2018-03-29T01:39:38.012Z,1001.13
2018-03-29T01:40:38.074Z,1001.11
2018-03-29T01:41:38.137Z,1001.12
2018-03-29T01:42:38.213Z,1001.15
2018-03-29T01:43:38.245Z,1001.21
2018-03-29T01:44:38.309Z,1001.19
2018-03-29T01:45:38.369Z,1001.17
2018-03-29T01:46:38.429Z,1001.20
2018-03-29T01:47:38.485Z,1001.20
2018-03-29T01:48:38.545Z,1001.24
2018-03-29T01:49:38.609Z,1001.23
2018-03-29T01:50:38.709Z,1001.23
2018-03-29T01:51:38.730Z,1001.24
2018-03-29T01:52:38.781Z,1001.22
2018-03-29T01:53:38.845Z,1001.23
2018-03-29T01:54:38.905Z,1001.25
2018-03-29T01:55:38.969Z,1001.21
2018-03-29T01:56:39.066Z,1001.20
2018-03-29T01:57:39.133Z,1001.20
2018-03-29T01:58:39.170Z,1001.25
2018-03-29T01:59:39.210Z,1001.24
2018-03-29T02:00:39.303Z,1001.25
2018-03-29T02:01:39.321Z,1001.30
2018-03-29T02:02:39.386Z,1001.27
2018-03-29T02:03:39.446Z,1001.27
2018-03-29T02:04:39.504Z,1001.33
2018-03-29T02:05:39.569Z,1001.32
2018-03-29T02:06:39.630Z,1001.35
2018-03-29T02:07:39.686Z,1001.36
2018-03-29T02:08:39.746Z,1001.37
2018-03-29T02:09:39.813Z,1001.38
2018-03-29T02:10:40.762Z,1001.36
2018-03-29T02:11:40.182Z,1001.42
2018-03-29T02:12:40.058Z,1001.45
2018-03-29T02:13:40.046Z,1001.43
2018-03-29T02:14:40.142Z,1001.45
2018-03-29T02:15:40.358Z,1001.45
2018-03-29T02:16:40.226Z,1001.43
2018-03-29T02:17:40.286Z,1001.42
2018-03-29T02:18:40.366Z,1001.41
2018-03-29T02:19:40.446Z,1001.45
2018-03-29T02:20:40.499Z,1001.45
2018-03-29T02:21:40.534Z,1001.45
2018-03-29T02:22:40.620Z,1001.51
2018-03-29T02:23:40.649Z,1001.51
2018-03-29T02:24:40.703Z,1001.57
2018-03-29T02:25:40.775Z,1001.54
2018-03-29T02:26:40.834Z,1001.53
2018-03-29T02:27:40.891Z,1001.52
2018-03-29T02:28:40.943Z,1001.48
2018-03-29T02:29:41.002Z,1001.54
2018-03-29T02:30:41.071Z,1001.47
2018-03-29T02:31:41.231Z,1001.51
2018-03-29T02:32:41.192Z,1001.51
2018-03-29T02:33:41.247Z,1001.53
2018-03-29T02:34:41.306Z,1001.51
2018-03-29T02:35:41.368Z,1001.49
2018-03-29T02:36:41.433Z,1001.49
2018-03-29T02:37:41.491Z,1001.52
2018-03-29T02:38:41.543Z,1001.53
2018-03-29T02:39:41.612Z,1001.62
2018-03-29T02:40:41.663Z,1001.56
2018-03-29T02:41:41.735Z,1001.59
2018-03-29T02:42:41.791Z,1001.62
2018-03-29T02:43:41.843Z,1001.58
2018-03-29T02:44:41.907Z,1001.58
2018-03-29T02:45:41.968Z,1001.60
2018-03-29T02:46:42.106Z,1001.61
2018-03-29T02:47:42.098Z,1001.59
2018-03-29T02:48:42.144Z,1001.61
2018-03-29T02:49:42.205Z,1001.64
2018-03-29T02:50:42.268Z,1001.63
2018-03-29T02:51:42.348Z,1001.58
2018-03-29T02:52:42.393Z,1001.62
2018-03-29T02:53:42.485Z,1001.63
2018-03-29T02:54:42.503Z,1001.68
2018-03-29T02:55:42.586Z,1001.69
2018-03-29T02:56:42.632Z,1001.67
2018-03-29T02:57:42.704Z,1001.70
2018-03-29T02:58:42.748Z,1001.73
2018-03-29T02:59:42.804Z,1001.73
2018-03-29T03:00:42.892Z,1001.78
2018-03-29T03:01:42.936Z,1001.71
2018-03-29T03:02:42.987Z,1001.76
2018-03-29T03:03:43.045Z,1001.75
2018-03-29T03:04:43.103Z,1001.73
2018-03-29T03:05:43.174Z,1001.74
2018-03-29T03:06:43.352Z,1001.74
2018-03-29T03:07:43.284Z,1001.75
2018-03-29T03:08:43.352Z,1001.75
2018-03-29T03:09:43.418Z,1001.76
2018-03-29T03:10:43.472Z,1001.75
2018-03-29T03:11:43.533Z,1001.77
2018-03-29T03:12:43.588Z,1001.76
2018-03-29T03:13:43.644Z,1001.76
2018-03-29T03:14:43.704Z,1001.79
2018-03-29T03:15:43.764Z,1001.79
2018-03-29T03:16:43.884Z,1001.81
2018-03-29T03:17:43.900Z,1001.83
2018-03-29T03:18:43.944Z,1001.82
2018-03-29T03:19:44.005Z,1001.85
2018-03-29T03:20:44.068Z,1001.81
2018-03-29T03:21:44.169Z,1001.82
2018-03-29T03:22:44.184Z,1001.82
2018-03-29T03:23:44.248Z,1001.79
2018-03-29T03:24:44.305Z,1001.82
2018-03-29T03:25:44.364Z,1001.83
2018-03-29T03:26:44.428Z,1001.80
2018-03-29T03:27:44.497Z,1001.78
2018-03-29T03:28:44.549Z,1001.77
2018-03-29T03:29:44.623Z,1001.78
2018-03-29T03:30:44.674Z,1001.74
2018-03-29T03:31:44.733Z,1001.80
2018-03-29T03:32:44.793Z,1001.77
2018-03-29T03:33:44.900Z,1001.78
2018-03-29T03:34:44.921Z,1001.72
2018-03-29T03:35:44.969Z,1001.69
2018-03-29T03:36:45.031Z,1001.65
2018-03-29T03:37:45.093Z,1001.65
2018-03-29T03:38:45.173Z,1001.66
2018-03-29T03:39:45.245Z,1001.66
2018-03-29T03:40:45.283Z,1001.67
2018-03-29T03:41:45.489Z,1001.69
2018-03-29T03:42:45.385Z,1001.70
2018-03-29T03:43:45.445Z,1001.73
2018-03-29T03:44:45.510Z,1001.75
2018-03-29T03:45:45.593Z,1001.75
2018-03-29T03:46:45.638Z,1001.81
2018-03-29T03:47:45.702Z,1001.80
2018-03-29T03:48:45.750Z,1001.80
2018-03-29T03:49:45.872Z,1001.80
2018-03-29T03:50:45.874Z,1001.78
2018-03-29T03:51:45.938Z,1001.81
2018-03-29T03:52:46.045Z,1001.78
2018-03-29T03:53:46.059Z,1001.79
2018-03-29T03:54:46.109Z,1001.84
2018-03-29T03:55:46.169Z,1001.79
2018-03-29T03:56:46.258Z,1001.81
2018-03-29T03:57:46.298Z,1001.80
2018-03-29T03:58:46.346Z,1001.79
2018-03-29T03:59:46.413Z,1001.84
2018-03-29T04:00:46.470Z,1001.81
2018-03-29T04:01:46.542Z,1001.79
2018-03-29T04:02:46.594Z,1001.78
2018-03-29T04:03:46.650Z,1001.79
2018-03-29T04:04:46.726Z,1001.76
2018-03-29T04:05:46.774Z,1001.76
2018-03-29T04:06:46.838Z,1001.74
2018-03-29T04:07:46.898Z,1001.74
2018-03-29T04:08:46.954Z,1001.81
2018-03-29T04:09:47.010Z,1001.82
2018-03-29T04:10:47.074Z,1001.82
2018-03-29T04:11:47.162Z,1001.80
2018-03-29T04:12:47.191Z,1001.88
2018-03-29T04:13:47.295Z,1001.89
2018-03-29T04:14:47.311Z,1001.91
2018-03-29T04:15:47.371Z,1001.87
2018-03-29T04:16:47.439Z,1001.91
2018-03-29T04:17:47.503Z,1001.92
2018-03-29T04:18:47.583Z,1001.90
2018-03-29T04:19:47.611Z,1001.89
2018-03-29T04:20:47.675Z,1001.86
2018-03-29T04:21:47.744Z,1001.83
2018-03-29T04:22:47.798Z,1001.88
2018-03-29T04:23:47.859Z,1001.90
2018-03-29T04:24:47.911Z,1001.91
2018-03-29T04:25:47.983Z,1001.90
2018-03-29T04:26:48.042Z,1001.91
2018-03-29T04:27:48.135Z,1001.88
2018-03-29T04:28:48.155Z,1001.90
2018-03-29T04:29:48.215Z,1001.93
2018-03-29T04:30:48.275Z,1001.90
2018-03-29T04:31:48.587Z,1001.89
2018-03-29T04:32:48.443Z,1001.91
2018-03-29T04:33:48.679Z,1001.89
2018-03-29T04:34:48.519Z,1001.85
2018-03-29T04:35:48.575Z,1001.80
2018-03-29T04:36:48.643Z,1001.86
2018-03-29T04:37:48.703Z,1001.80
2018-03-29T04:38:48.757Z,1001.82
2018-03-29T04:39:48.848Z,1001.77
2018-03-29T04:40:48.900Z,1001.82
2018-03-29T04:41:48.948Z,1001.76
2018-03-29T04:42:49.003Z,1001.80
2018-03-29T04:43:49.060Z,1001.77
2018-03-29T04:44:49.156Z,1001.78
2018-03-29T04:45:49.216Z,1001.78
2018-03-29T04:46:49.252Z,1001.79
2018-03-29T04:47:49.300Z,1001.73
2018-03-29T04:48:49.359Z,1001.76
2018-03-29T04:49:49.424Z,1001.72
2018-03-29T04:50:49.480Z,1001.71
2018-03-29T04:51:49.556Z,1001.74
2018-03-29T04:52:49.608Z,1001.77
2018-03-29T04:53:49.668Z,1001.73
2018-03-29T04:54:49.726Z,1001.75
2018-03-29T04:55:49.780Z,1001.76
2018-03-29T04:56:49.852Z,1001.79
2018-03-29T04:57:49.909Z,1001.79
2018-03-29T04:58:49.984Z,1001.80
2018-03-29T04:59:50.024Z,1001.83
2018-03-29T05:00:51.910Z,1001.85
2018-03-29T05:01:50.200Z,1001.84
2018-03-29T05:02:50.220Z,1001.82
2018-03-29T05:03:50.268Z,1001.82
2018-03-29T05:04:50.337Z,1001.85
2018-03-29T05:05:50.392Z,1001.88
2018-03-29T05:06:50.473Z,1001.87
2018-03-29T05:07:50.513Z,1001.90
2018-03-29T05:08:50.565Z,1001.89
2018-03-29T05:09:50.629Z,1001.89
2018-03-29T05:10:50.684Z,1001.89
2018-03-29T05:11:50.761Z,1001.91
2018-03-29T05:12:50.873Z,1001.90
2018-03-29T05:13:50.888Z,1001.91
2018-03-29T05:14:50.928Z,1001.90
2018-03-29T05:15:50.989Z,1001.90
2018-03-29T05:16:51.065Z,1001.90
2018-03-29T05:17:51.169Z,1001.89
2018-03-29T05:18:51.186Z,1001.87
2018-03-29T05:19:51.233Z,1001.90
2018-03-29T05:20:51.293Z,1001.90
2018-03-29T05:21:51.358Z,1001.90
2018-03-29T05:22:51.421Z,1001.92
2018-03-29T05:23:51.473Z,1001.95
2018-03-29T05:24:51.529Z,1001.90
2018-03-29T05:25:51.590Z,1001.91
2018-03-29T05:26:51.662Z,1001.90
2018-03-29T05:27:51.727Z,1001.91
2018-03-29T05:28:51.769Z,1001.94
2018-03-29T05:29:51.834Z,1001.97
2018-03-29T05:30:51.894Z,1001.99
2018-03-29T05:31:51.979Z,1002.00
2018-03-29T05:32:52.016Z,1001.99
2018-03-29T05:33:52.078Z,1002.00
2018-03-29T05:34:52.133Z,1001.99
2018-03-29T05:35:52.202Z,1002.02
2018-03-29T05:36:52.737Z,1002.06
2018-03-29T05:37:52.318Z,1002.03
2018-03-29T05:38:52.382Z,1002.05
2018-03-29T05:39:52.434Z,1002.06
2018-03-29T05:40:52.522Z,1002.00
2018-03-29T05:41:52.558Z,1002.04
2018-03-29T05:42:52.846Z,1002.08
2018-03-29T05:43:52.682Z,1002.08
2018-03-29T05:44:52.738Z,1002.08
2018-03-29T05:45:52.798Z,1002.05
2018-03-29T05:46:52.860Z,1002.04
2018-03-29T05:47:52.932Z,1002.05
2018-03-29T05:48:52.990Z,1002.02
2018-03-29T05:49:53.094Z,1002.02
2018-03-29T05:50:53.110Z,1002.04
2018-03-29T05:51:53.158Z,1001.98
2018-03-29T05:52:53.350Z,1002.01
2018-03-29T05:53:53.286Z,1001.97
2018-03-29T05:54:53.342Z,1002.00
2018-03-29T05:55:53.415Z,1001.98
2018-03-29T05:56:53.579Z,1002.00
2018-03-29T05:57:55.343Z,1001.99
2018-03-29T05:58:55.343Z,1001.97
2018-03-29T05:59:53.650Z,1002.00
2018-03-29T06:00:53.703Z,1001.97
2018-03-29T06:01:53.769Z,1001.96
2018-03-29T06:02:53.823Z,1001.99
2018-03-29T06:03:54.287Z,1001.93
2018-03-29T06:04:53.947Z,1001.95
2018-03-29T06:05:54.007Z,1001.97
2018-03-29T06:06:54.067Z,1001.99
2018-03-29T06:07:54.126Z,1001.99
2018-03-29T06:08:54.244Z,1002.00
2018-03-29T06:09:54.327Z,1002.03
2018-03-29T06:10:54.311Z,1002.01
2018-03-29T06:11:54.379Z,1002.03
2018-03-29T06:12:54.474Z,1002.06
2018-03-29T06:13:54.496Z,1002.01
2018-03-29T06:14:54.560Z,1002.03
2018-03-29T06:15:54.655Z,1002.04
2018-03-29T06:16:54.672Z,1002.07
2018-03-29T06:17:54.732Z,1002.09
2018-03-29T06:18:54.791Z,1002.09
2018-03-29T06:19:54.887Z,1002.08
2018-03-29T06:20:54.929Z,1002.05
2018-03-29T06:21:54.980Z,1002.05
2018-03-29T06:22:55.036Z,1002.08
2018-03-29T06:23:55.096Z,1002.07
2018-03-29T06:24:55.156Z,1002.09
2018-03-29T06:25:55.384Z,1002.10
2018-03-29T06:26:55.276Z,1002.07
2018-03-29T06:27:55.337Z,1002.11
2018-03-29T06:28:55.404Z,1002.13
2018-03-29T06:29:55.456Z,1002.13
2018-03-29T06:30:55.636Z,1002.14
2018-03-29T06:31:55.588Z,1002.12
2018-03-29T06:32:55.647Z,1002.07
2018-03-29T06:33:55.708Z,1002.16
2018-03-29T06:34:55.761Z,1002.16
2018-03-29T06:35:55.860Z,1002.15
2018-03-29T06:36:55.892Z,1002.19
2018-03-29T06:37:55.940Z,1002.25
2018-03-29T06:38:56.004Z,1002.23
2018-03-29T06:39:56.065Z,1002.28
2018-03-29T06:40:56.297Z,1002.32
2018-03-29T06:41:56.188Z,1002.29
2018-03-29T06:42:56.244Z,1002.28
2018-03-29T06:43:56.305Z,1002.31
2018-03-29T06:44:56.372Z,1002.34
2018-03-29T06:45:56.441Z,1002.27
2018-03-29T06:46:56.511Z,1002.35
2018-03-29T06:47:56.549Z,1002.37
2018-03-29T06:48:56.609Z,1002.32
2018-03-29T06:49:56.673Z,1002.33
2018-03-29T06:50:56.737Z,1002.31
2018-03-29T06:51:56.793Z,1002.31
2018-03-29T06:52:56.861Z,1002.35
2018-03-29T06:53:56.909Z,1002.36
2018-03-29T06:54:56.965Z,1002.34
2018-03-29T06:55:57.093Z,1002.37
2018-03-29T06:56:57.099Z,1002.36
2018-03-29T06:57:57.149Z,1002.36
2018-03-29T06:58:57.213Z,1002.36
2018-03-29T06:59:57.294Z,1002.37
2018-03-29T07:00:57.386Z,1002.35
2018-03-29T07:01:57.389Z,1002.38
2018-03-29T07:02:57.452Z,1002.39
2018-03-29T07:03:57.512Z,1002.38
2018-03-29T07:04:57.574Z,1002.40
2018-03-29T07:05:57.642Z,1002.41
2018-03-29T07:06:57.698Z,1002.40
2018-03-29T07:07:57.752Z,1002.40
2018-03-29T07:08:57.819Z,1002.36
2018-03-29T07:09:57.873Z,1002.39
2018-03-29T07:10:57.942Z,1002.41
2018-03-29T07:11:58.001Z,1002.47
2018-03-29T07:12:58.054Z,1002.43
2018-03-29T07:13:58.117Z,1002.43
2018-03-29T07:14:58.229Z,1002.41
2018-03-29T07:15:59.518Z,1002.43
2018-03-29T07:16:58.299Z,1002.41
2018-03-29T07:17:58.494Z,1002.47
2018-03-29T07:18:59.330Z,1002.44
2018-03-29T07:19:59.342Z,1002.44
2018-03-29T07:20:58.566Z,1002.44
2018-03-29T07:21:58.609Z,1002.47
2018-03-29T07:22:58.686Z,1002.47
2018-03-29T07:23:58.714Z,1002.49
2018-03-29T07:24:58.779Z,1002.52
2018-03-29T07:25:58.887Z,1002.51
2018-03-29T07:26:58.958Z,1002.49
2018-03-29T07:27:58.990Z,1002.51
2018-03-29T07:28:59.042Z,1002.49
2018-03-29T07:29:59.131Z,1002.48
2018-03-29T07:30:59.263Z,1002.52
2018-03-29T07:31:59.210Z,1002.52
2018-03-29T07:32:59.267Z,1002.52
2018-03-29T07:33:59.327Z,1002.59
2018-03-29T07:34:59.386Z,1002.50
2018-03-29T07:35:59.471Z,1002.53
2018-03-29T07:36:59.590Z,1002.57
2018-03-29T07:37:59.630Z,1002.56
2018-03-29T07:38:59.627Z,1002.59
2018-03-29T07:39:59.724Z,1002.61
2018-03-29T07:40:59.763Z,1002.66
2018-03-29T07:41:59.909Z,1002.67
2018-03-29T07:42:59.943Z,1002.73
2018-03-29T07:43:59.931Z,1002.65
2018-03-29T07:44:59.995Z,1002.71
2018-03-29T07:46:00.064Z,1002.72
2018-03-29T07:47:00.531Z,1002.71
2018-03-29T07:48:00.171Z,1002.75
2018-03-29T07:49:00.239Z,1002.74
2018-03-29T07:50:00.299Z,1002.72
2018-03-29T07:51:00.559Z,1002.74
2018-03-29T07:52:00.508Z,1002.82
2018-03-29T07:53:00.484Z,1002.81
2018-03-29T07:54:00.539Z,1002.81
2018-03-29T07:55:00.644Z,1002.77
2018-03-29T07:56:00.719Z,1002.79
2018-03-29T07:57:00.756Z,1002.79
2018-03-29T07:58:00.780Z,1002.79
2018-03-29T07:59:00.863Z,1002.81
2018-03-29T08:00:00.908Z,1002.82
2018-03-29T08:01:00.995Z,1002.81
2018-03-29T08:02:01.036Z,1002.85
2018-03-29T08:03:01.124Z,1002.87
2018-03-29T08:04:01.164Z,1002.90
2018-03-29T08:05:01.240Z,1002.88
2018-03-29T08:06:01.268Z,1002.84
2018-03-29T08:07:01.396Z,1002.85
2018-03-29T08:08:01.403Z,1002.83
2018-03-29T08:09:01.484Z,1002.82
2018-03-29T08:10:01.536Z,1002.83
2018-03-29T08:11:01.614Z,1002.84
2018-03-29T08:12:01.660Z,1002.88
2018-03-29T08:13:01.713Z,1002.80
2018-03-29T08:14:01.897Z,1002.88
2018-03-29T08:15:01.836Z,1002.84
2018-03-29T08:16:01.973Z,1002.89
2018-03-29T08:17:02.009Z,1002.90
2018-03-29T08:18:02.068Z,1002.93
2018-03-29T08:19:02.113Z,1002.89
2018-03-29T08:20:02.136Z,1002.90
2018-03-29T08:21:02.188Z,1002.84
2018-03-29T08:22:02.393Z,1002.85
2018-03-29T08:23:02.316Z,1002.87
2018-03-29T08:24:02.468Z,1002.88
2018-03-29T08:25:02.521Z,1002.90
2018-03-29T08:26:02.565Z,1002.88
2018-03-29T08:27:02.693Z,1002.92
2018-03-29T08:28:02.697Z,1002.88
2018-03-29T08:29:02.685Z,1002.94
2018-03-29T08:30:02.765Z,1002.96
2018-03-29T08:31:02.806Z,1002.98
2018-03-29T08:32:02.913Z,1002.99
2018-03-29T08:33:03.876Z,1002.99
2018-03-29T08:34:03.069Z,1002.95
2018-03-29T08:35:03.106Z,1002.97
2018-03-29T08:36:03.221Z,1003.00
2018-03-29T08:37:03.593Z,1002.97
2018-03-29T08:38:03.649Z,1002.97
2018-03-29T08:39:03.289Z,1002.97
2018-03-29T08:40:03.382Z,1003.00
2018-03-29T08:41:03.897Z,1003.02
2018-03-29T08:42:03.501Z,1002.99
2018-03-29T08:43:03.833Z,1002.97
2018-03-29T08:44:03.617Z,1003.04
2018-03-29T08:45:03.673Z,1003.04
2018-03-29T08:46:03.730Z,1003.06
2018-03-29T08:47:03.849Z,1003.04
2018-03-29T08:48:04.148Z,1003.06
2018-03-29T08:49:04.198Z,1003.07
2018-03-29T08:50:03.990Z,1003.09
2018-03-29T08:51:04.037Z,1003.11
2018-03-29T08:52:04.250Z,1003.10
2018-03-29T08:53:04.814Z,1003.14
2018-03-29T08:54:04.218Z,1003.10
2018-03-29T08:55:04.358Z,1003.09
2018-03-29T08:56:04.354Z,1003.10
2018-03-29T08:57:04.461Z,1003.14
2018-03-29T08:58:04.498Z,1003.15
2018-03-29T08:59:04.598Z,1003.18
2018-03-29T09:00:04.606Z,1003.20
2018-03-29T09:01:04.670Z,1003.20
2018-03-29T09:02:04.726Z,1003.18
2018-03-29T09:03:04.808Z,1003.20
2018-03-29T09:04:04.847Z,1003.26
2018-03-29T09:05:04.898Z,1003.21
2018-03-29T09:06:04.955Z,1003.23
2018-03-29T09:07:05.024Z,1003.23
2018-03-29T09:08:05.075Z,1003.20
2018-03-29T09:09:05.171Z,1003.24
2018-03-29T09:10:05.195Z,1003.27
2018-03-29T09:11:05.254Z,1003.18
2018-03-29T09:12:05.318Z,1003.14
2018-03-29T09:13:05.379Z,1003.12
2018-03-29T09:14:05.454Z,1003.19
2018-03-29T09:15:05.515Z,1003.22
2018-03-29T09:16:05.587Z,1003.23
2018-03-29T09:17:05.633Z,1003.22
2018-03-29T09:18:05.699Z,1003.23
2018-03-29T09:19:05.783Z,1003.23
2018-03-29T09:20:05.851Z,1003.29
2018-03-29T09:21:05.913Z,1003.32
2018-03-29T09:22:05.971Z,1003.29
2018-03-29T09:23:06.008Z,1003.33
2018-03-29T09:24:06.083Z,1003.29
2018-03-29T09:25:06.139Z,1003.34
2018-03-29T09:26:06.195Z,1003.34
2018-03-29T09:27:06.311Z,1003.42
2018-03-29T09:28:06.319Z,1003.49
2018-03-29T09:29:06.384Z,1003.43
2018-03-29T09:30:06.443Z,1003.51
2018-03-29T09:31:06.499Z,1003.52
2018-03-29T09:32:06.559Z,1003.47
2018-03-29T09:33:06.627Z,1003.46
2018-03-29T09:34:06.720Z,1003.41
2018-03-29T09:35:06.768Z,1003.42
2018-03-29T09:36:06.840Z,1003.47
2018-03-29T09:37:06.880Z,1003.43
2018-03-29T09:38:06.936Z,1003.51
2018-03-29T09:39:07.040Z,1003.52
2018-03-29T09:40:07.068Z,1003.54
2018-03-29T09:41:07.132Z,1003.57
2018-03-29T09:42:07.195Z,1003.50
2018-03-29T09:43:07.275Z,1003.50
2018-03-29T09:44:07.362Z,1003.61
2018-03-29T09:45:07.380Z,1003.55
2018-03-29T09:46:07.439Z,1003.48
2018-03-29T09:47:07.504Z,1003.43
2018-03-29T09:48:07.556Z,1003.49
2018-03-29T09:49:07.648Z,1003.52
2018-03-29T09:50:07.700Z,1003.49
2018-03-29T09:51:07.764Z,1003.53
2018-03-29T09:52:07.876Z,1003.65
2018-03-29T09:53:07.881Z,1003.70
2018-03-29T09:54:08.004Z,1003.67
2018-03-29T09:55:08.017Z,1003.59
2018-03-29T09:56:08.068Z,1003.56
2018-03-29T09:57:08.144Z,1003.55
2018-03-29T09:58:08.192Z,1003.62
2018-03-29T09:59:08.292Z,1003.73
2018-03-29T10:00:08.326Z,1003.84
2018-03-29T10:01:08.380Z,1003.68
2018-03-29T10:02:08.440Z,1003.84
2018-03-29T10:03:08.504Z,1003.65
2018-03-29T10:04:08.572Z,1003.69
2018-03-29T10:05:08.645Z,1003.62
2018-03-29T10:06:08.701Z,1003.58
2018-03-29T10:07:08.767Z,1003.73
2018-03-29T10:08:08.820Z,1003.72
2018-03-29T10:09:08.893Z,1003.64
2018-03-29T10:10:08.959Z,1003.67
2018-03-29T10:11:09.012Z,1003.52
2018-03-29T10:12:09.111Z,1003.57
2018-03-29T10:13:09.136Z,1003.58
2018-03-29T10:14:09.217Z,1003.51
2018-03-29T10:15:09.267Z,1003.46
2018-03-29T10:16:09.333Z,1003.47
2018-03-29T10:17:10.349Z,1003.41
2018-03-29T10:18:09.465Z,1003.38
2018-03-29T10:19:09.530Z,1003.40
2018-03-29T10:20:09.589Z,1003.44
2018-03-29T10:21:09.645Z,1003.50
2018-03-29T10:22:09.713Z,1003.48
2018-03-29T10:23:09.782Z,1003.47
2018-03-29T10:24:09.901Z,1003.46
2018-03-29T10:25:09.917Z,1003.43
2018-03-29T10:26:09.969Z,1003.38
2018-03-29T10:27:10.034Z,1003.34
2018-03-29T10:28:10.094Z,1003.34
2018-03-29T10:29:10.214Z,1003.31
2018-03-29T10:30:10.256Z,1003.34
2018-03-29T10:31:10.334Z,1003.33
2018-03-29T10:32:10.350Z,1003.38
2018-03-29T10:33:10.409Z,1003.35
2018-03-29T10:34:10.541Z,1003.33
2018-03-29T10:35:10.550Z,1003.27
2018-03-29T10:36:10.601Z,1003.24
2018-03-29T10:37:10.662Z,1003.23
2018-03-29T10:38:10.726Z,1003.22
2018-03-29T10:39:10.798Z,1003.20
2018-03-29T10:40:10.866Z,1003.19
2018-03-29T10:41:10.927Z,1003.21
2018-03-29T10:42:10.982Z,1003.21
2018-03-29T10:43:11.046Z,1003.20
2018-03-29T10:44:11.414Z,1003.18
2018-03-29T10:45:11.182Z,1003.15
2018-03-29T10:46:11.242Z,1003.13
2018-03-29T10:47:11.311Z,1003.13
2018-03-29T10:48:11.374Z,1003.05
2018-03-29T10:49:11.499Z,1003.04
2018-03-29T10:50:11.504Z,1003.01
2018-03-29T10:51:12.355Z,1003.00
2018-03-29T10:52:11.643Z,1003.00
2018-03-29T10:53:11.686Z,1003.04
2018-03-29T10:54:11.762Z,1003.00
2018-03-29T10:55:11.827Z,1003.03
2018-03-29T10:56:11.879Z,1002.97
2018-03-29T10:57:11.939Z,1003.00
2018-03-29T10:58:12.003Z,1003.00
2018-03-29T10:59:12.070Z,1003.02
2018-03-29T11:00:12.138Z,1003.05
2018-03-29T11:01:12.195Z,1003.05
2018-03-29T11:02:12.259Z,1002.99
2018-03-29T11:03:12.351Z,1003.05
2018-03-29T11:04:12.426Z,1003.02
2018-03-29T11:05:12.462Z,1003.08
2018-03-29T11:06:12.518Z,1003.12
2018-03-29T11:07:12.579Z,1003.04
2018-03-29T11:08:12.643Z,1003.10
2018-03-29T11:09:12.716Z,1003.01
2018-03-29T11:10:12.775Z,1003.08
2018-03-29T11:11:12.835Z,1003.09
2018-03-29T11:12:12.904Z,1003.07
2018-03-29T11:13:12.971Z,1003.05
2018-03-29T11:14:13.031Z,1003.06
2018-03-29T11:15:13.107Z,1003.08
2018-03-29T11:16:13.167Z,1003.03
2018-03-29T11:17:13.223Z,1003.06
2018-03-29T11:18:13.287Z,1003.17
2018-03-29T11:19:13.360Z,1003.12
2018-03-29T11:20:13.420Z,1003.15
2018-03-29T11:21:13.475Z,1003.13
2018-03-29T11:22:13.543Z,1003.12
2018-03-29T11:23:13.603Z,1003.18
2018-03-29T11:24:13.675Z,1003.24
2018-03-29T11:25:13.748Z,1003.21
2018-03-29T11:26:13.800Z,1003.17
2018-03-29T11:27:13.867Z,1003.21
2018-03-29T11:28:13.928Z,1003.23
2018-03-29T11:29:14.003Z,1003.25
2018-03-29T11:30:14.064Z,1003.21
2018-03-29T11:31:14.124Z,1003.22
2018-03-29T11:32:14.197Z,1003.23
2018-03-29T11:33:14.252Z,1003.29
2018-03-29T11:34:14.317Z,1003.27
2018-03-29T11:35:14.399Z,1003.31
2018-03-29T11:36:14.448Z,1003.28
2018-03-29T11:37:14.508Z,1003.26
2018-03-29T11:38:14.576Z,1003.30
2018-03-29T11:39:14.636Z,1003.29
2018-03-29T11:40:14.728Z,1003.28
2018-03-29T11:41:14.780Z,1003.28
2018-03-29T11:42:14.828Z,1003.30
2018-03-29T11:43:14.896Z,1003.27
2018-03-29T11:44:14.956Z,1003.27
2018-03-29T11:45:15.023Z,1003.22
2018-03-29T11:46:15.504Z,1003.27
2018-03-29T11:47:15.156Z,1003.28
2018-03-29T11:48:15.217Z,1003.30
2018-03-29T11:49:15.276Z,1003.29
2018-03-29T11:50:15.341Z,1003.32
2018-03-29T11:51:15.408Z,1003.34
2018-03-29T11:52:15.773Z,1003.34
2018-03-29T11:53:15.534Z,1003.31
2018-03-29T11:54:15.596Z,1003.31
2018-03-29T11:55:15.661Z,1003.31
2018-03-29T11:56:15.725Z,1003.31
2018-03-29T11:57:15.797Z,1003.29
2018-03-29T11:58:15.860Z,1003.32
2018-03-29T11:59:15.925Z,1003.33
2018-03-29T12:00:15.985Z,1003.33
2018-03-29T12:01:16.048Z,1003.37
2018-03-29T12:02:16.265Z,1003.36
2018-03-29T12:03:16.173Z,1003.35
2018-03-29T12:04:16.237Z,1003.33
2018-03-29T12:05:16.301Z,1003.35
2018-03-29T12:06:16.367Z,1003.33